Observation data for Clarendon on 10/18/2019      Previous  Date       Current Mesonet Observations  Soil Data  Daily Summary Page  Observations in Plain Language
KCES 180500Z 17017KT 16/00 A2982 RMK A01 T01610000  RH  034%=      5-min Rain = 0
KCES 180505Z 17017KT 16/00 A2982 RMK A01 T01620003  RH  034%=      5-min Rain = 0
KCES 180510Z 17016KT 16/01 A2982 RMK A01 T01610005  RH  035%=      5-min Rain = 0
KCES 180515Z 17016G21KT 16/01 A2982 RMK A01 T01600006  RH  036%=      5-min Rain = 0
KCES 180520Z 17016G21KT 16/01 A2982 RMK A01 T01600007  RH  036%=      5-min Rain = 0
KCES 180525Z 17015KT 16/01 A2983 RMK A01 T01590008  RH  037%=      5-min Rain = 0
KCES 180530Z 17014KT 16/01 A2983 RMK A01 T01570010  RH  037%=      5-min Rain = 0
KCES 180535Z 17013KT 16/01 A2982 RMK A01 T01550011  RH  038%=      5-min Rain = 0
KCES 180540Z 18012KT 15/01 A2983 RMK A01 T01540012  RH  039%=      5-min Rain = 0
KCES 180545Z 18010KT 15/01 A2983 RMK A01 T01520014  RH  040%=      5-min Rain = 0
KCES 180550Z 18011KT 15/02 A2983 RMK A01 T01500015  RH  041%=      5-min Rain = 0
KCES 180555Z 18011KT 15/02 A2983 RMK A01 T01500017  RH  041%=      5-min Rain = 0
KCES 180600Z 18011KT 15/02 A2982 RMK A01 T01490018  RH  042%=      5-min Rain = 0
KCES 180605Z 18011KT 15/02 A2982 RMK A01 T01500019  RH  042%=      5-min Rain = 0
KCES 180610Z 18012KT 15/02 A2982 RMK A01 T01500019  RH  042%=      5-min Rain = 0
KCES 180615Z 18012KT 15/02 A2982 RMK A01 T01480019  RH  042%=      5-min Rain = 0
KCES 180620Z 18012KT 15/02 A2981 RMK A01 T01470019  RH  043%=      5-min Rain = 0
KCES 180625Z 18012KT 15/02 A2981 RMK A01 T01460019  RH  043%=      5-min Rain = 0
KCES 180630Z 18012KT 14/02 A2981 RMK A01 T01440019  RH  043%=      5-min Rain = 0
KCES 180635Z 18011KT 14/02 A2981 RMK A01 T01430019  RH  044%=      5-min Rain = 0
KCES 180640Z 18011KT 14/02 A2981 RMK A01 T01410020  RH  044%=      5-min Rain = 0
KCES 180645Z 19011KT 14/02 A2981 RMK A01 T01420021  RH  045%=      5-min Rain = 0
KCES 180650Z 19011KT 14/02 A2981 RMK A01 T01440021  RH  044%=      5-min Rain = 0
KCES 180655Z 19012KT 15/02 A2982 RMK A01 T01450022  RH  044%=      5-min Rain = 0
KCES 180700Z 18012KT 15/02 A2982 RMK A01 T01450022  RH  044%=      5-min Rain = 0
KCES 180705Z 18012KT 14/02 A2982 RMK A01 T01430022  RH  044%=      5-min Rain = 0
KCES 180710Z 19011KT 14/02 A2981 RMK A01 T01420021  RH  045%=      5-min Rain = 0
KCES 180715Z 19011KT 14/02 A2981 RMK A01 T01400022  RH  045%=      5-min Rain = 0
KCES 180720Z 18011KT 14/02 A2981 RMK A01 T01380022  RH  046%=      5-min Rain = 0
KCES 180725Z 18011KT 14/02 A2981 RMK A01 T01380022  RH  046%=      5-min Rain = 0
KCES 180730Z 18011KT 14/02 A2981 RMK A01 T01370022  RH  046%=      5-min Rain = 0
KCES 180735Z 18010KT 14/02 A2981 RMK A01 T01360022  RH  047%=      5-min Rain = 0
KCES 180740Z 18009KT 13/02 A2981 RMK A01 T01340022  RH  047%=      5-min Rain = 0
KCES 180745Z 18009KT 13/02 A2981 RMK A01 T01340022  RH  048%=      5-min Rain = 0
KCES 180750Z 18008KT 13/02 A2981 RMK A01 T01330023  RH  048%=      5-min Rain = 0
KCES 180755Z 18008KT 13/02 A2981 RMK A01 T01320023  RH  048%=      5-min Rain = 0
KCES 180800Z 18007KT 13/02 A2981 RMK A01 T01300023  RH  049%=      5-min Rain = 0
KCES 180805Z 18007KT 12/02 A2981 RMK A01 T01240023  RH  051%=      5-min Rain = 0
KCES 180810Z 19007KT 12/02 A2981 RMK A01 T01200024  RH  053%=      5-min Rain = 0
KCES 180815Z 19008KT 12/03 A298 RMK A01 T01220025  RH  052%=      5-min Rain = 0
KCES 180820Z 19008KT 13/03 A298 RMK A01 T01250025  RH  051%=      5-min Rain = 0
KCES 180825Z 19008KT 13/03 A298 RMK A01 T01260025  RH  051%=      5-min Rain = 0
KCES 180830Z 19008KT 13/03 A298 RMK A01 T01260026  RH  051%=      5-min Rain = 0
KCES 180835Z 18008KT 13/03 A298 RMK A01 T01260027  RH  052%=      5-min Rain = 0
KCES 180840Z 18008KT 13/03 A298 RMK A01 T01280028  RH  051%=      5-min Rain = 0
KCES 180845Z 18008KT 13/03 A2979 RMK A01 T01310030  RH  051%=      5-min Rain = 0
KCES 180850Z 18008KT 13/03 A2979 RMK A01 T01340031  RH  051%=      5-min Rain = 0
KCES 180855Z 18010KT 14/03 A2979 RMK A01 T01380033  RH  050%=      5-min Rain = 0
KCES 180900Z 18011KT 14/03 A2979 RMK A01 T01390033  RH  050%=      5-min Rain = 0
KCES 180905Z 18012KT 14/03 A2979 RMK A01 T01400033  RH  049%=      5-min Rain = 0
KCES 180910Z 18012KT 14/03 A2978 RMK A01 T01380032  RH  049%=      5-min Rain = 0
KCES 180915Z 19012KT 14/03 A2978 RMK A01 T01360032  RH  050%=      5-min Rain = 0
KCES 180920Z 19012KT 13/03 A2978 RMK A01 T01340032  RH  051%=      5-min Rain = 0
KCES 180925Z 20012KT 13/03 A2978 RMK A01 T01330033  RH  052%=      5-min Rain = 0
KCES 180930Z 20013KT 13/04 A2978 RMK A01 T01330036  RH  053%=      5-min Rain = 0
KCES 180935Z 20013KT 14/04 A2978 RMK A01 T01360041  RH  054%=      5-min Rain = 0
KCES 180940Z 20013KT 14/04 A2977 RMK A01 T01390044  RH  054%=      5-min Rain = 0
KCES 180945Z 20013KT 14/05 A2977 RMK A01 T01400046  RH  054%=      5-min Rain = 0
KCES 180950Z 20014KT 14/05 A2977 RMK A01 T01410049  RH  055%=      5-min Rain = 0
KCES 180955Z 20014KT 14/05 A2977 RMK A01 T01430051  RH  055%=      5-min Rain = 0
KCES 181000Z 20013KT 14/05 A2977 RMK A01 T01440052  RH  055%=      5-min Rain = 0
KCES 181005Z 20013KT 14/05 A2977 RMK A01 T01430051  RH  055%=      5-min Rain = 0
KCES 181010Z 20013KT 14/05 A2977 RMK A01 T01420051  RH  056%=      5-min Rain = 0
KCES 181015Z 20013KT 14/05 A2977 RMK A01 T01410053  RH  057%=      5-min Rain = 0
KCES 181020Z 20013KT 14/06 A2977 RMK A01 T01420056  RH  058%=      5-min Rain = 0
KCES 181025Z 20012KT 14/06 A2977 RMK A01 T01440058  RH  058%=      5-min Rain = 0
KCES 181030Z 20013KT 15/06 A2977 RMK A01 T01460060  RH  058%=      5-min Rain = 0
KCES 181035Z 20013KT 15/06 A2977 RMK A01 T01480062  RH  058%=      5-min Rain = 0
KCES 181040Z 20015KT 15/06 A2977 RMK A01 T01510063  RH  057%=      5-min Rain = 0
KCES 181045Z 20014KT 15/06 A2977 RMK A01 T01530064  RH  057%=      5-min Rain = 0
KCES 181050Z 20014KT 15/06 A2977 RMK A01 T01520063  RH  057%=      5-min Rain = 0
KCES 181055Z 19012KT 15/06 A2977 RMK A01 T01510063  RH  057%=      5-min Rain = 0
KCES 181100Z 20011KT 15/06 A2977 RMK A01 T01510064  RH  057%=      5-min Rain = 0
KCES 181105Z 20009KT 15/07 A2978 RMK A01 T01500065  RH  058%=      5-min Rain = 0
KCES 181110Z 19008KT 15/07 A2978 RMK A01 T01470065  RH  059%=      5-min Rain = 0
KCES 181115Z 19008KT 14/06 A2978 RMK A01 T01440064  RH  060%=      5-min Rain = 0
KCES 181120Z 19008KT 14/06 A2978 RMK A01 T01390064  RH  062%=      5-min Rain = 0
KCES 181125Z 19008KT 14/06 A2978 RMK A01 T01360064  RH  063%=      5-min Rain = 0
KCES 181130Z 18008KT 13/06 A2978 RMK A01 T01330063  RH  064%=      5-min Rain = 0
KCES 181135Z 18009KT 13/06 A2978 RMK A01 T01270061  RH  066%=      5-min Rain = 0
KCES 181140Z 18009KT 13/06 A2978 RMK A01 T01250061  RH  067%=      5-min Rain = 0
KCES 181145Z 18011KT 13/06 A2978 RMK A01 T01250063  RH  067%=      5-min Rain = 0
KCES 181150Z 18012KT 13/06 A2978 RMK A01 T01280063  RH  066%=      5-min Rain = 0
KCES 181155Z 19012KT 13/06 A2978 RMK A01 T01290064  RH  066%=      5-min Rain = 0
KCES 181200Z 19013KT 13/07 A2977 RMK A01 T01330066  RH  066%=      5-min Rain = 0
KCES 181205Z 19013KT 14/07 A2977 RMK A01 T01380067  RH  064%=      5-min Rain = 0
KCES 181210Z 19012KT 14/07 A2977 RMK A01 T01400067  RH  063%=      5-min Rain = 0
KCES 181215Z 19012KT 14/07 A2977 RMK A01 T01400067  RH  063%=      5-min Rain = 0
KCES 181220Z 19011KT 14/07 A2977 RMK A01 T01390066  RH  063%=      5-min Rain = 0
KCES 181225Z 19010KT 14/07 A2978 RMK A01 T01380066  RH  063%=      5-min Rain = 0
KCES 181230Z 20008KT 14/07 A2978 RMK A01 T01360065  RH  064%=      5-min Rain = 0
KCES 181235Z 20007KT 13/06 A2978 RMK A01 T01330064  RH  065%=      5-min Rain = 0
KCES 181240Z 19008KT 13/06 A2978 RMK A01 T01300063  RH  065%=      5-min Rain = 0
KCES 181245Z 20008KT 13/06 A2978 RMK A01 T01300063  RH  065%=      5-min Rain = 0
KCES 181250Z 19008KT 13/06 A2978 RMK A01 T01290063  RH  066%=      5-min Rain = 0
KCES 181255Z 20008KT 13/06 A2978 RMK A01 T01260062  RH  066%=      5-min Rain = 0
KCES 181300Z 21007KT 12/06 A2978 RMK A01 T01210060  RH  068%=      5-min Rain = 0
KCES 181305Z 20007KT 12/06 A2978 RMK A01 T01150059  RH  070%=      5-min Rain = 0
KCES 181310Z 19007KT 12/06 A2978 RMK A01 T01160061  RH  070%=      5-min Rain = 0
KCES 181315Z 20006KT 12/06 A2977 RMK A01 T01180064  RH  071%=      5-min Rain = 0
KCES 181320Z 20007KT 13/07 A2977 RMK A01 T01260067  RH  069%=      5-min Rain = 0
KCES 181325Z 20008KT 13/07 A2977 RMK A01 T01300067  RH  067%=      5-min Rain = 0
KCES 181330Z 20007KT 13/07 A2977 RMK A01 T01320067  RH  066%=      5-min Rain = 0
KCES 181335Z 18006KT 13/07 A2977 RMK A01 T01340069  RH  066%=      5-min Rain = 0
KCES 181340Z 18005KT 14/07 A2977 RMK A01 T01390071  RH  065%=      5-min Rain = 0
KCES 181345Z 17005KT 14/07 A2977 RMK A01 T01440072  RH  064%=      5-min Rain = 0
KCES 181350Z 17004KT 15/07 A2978 RMK A01 T01470073  RH  063%=      5-min Rain = 0
KCES 181355Z 17003KT 15/07 A2978 RMK A01 T01500073  RH  062%=      5-min Rain = 0
KCES 181400Z 16003KT 15/07 A2978 RMK A01 T01540073  RH  060%=      5-min Rain = 0
KCES 181405Z 17004KT 16/07 A2978 RMK A01 T01570074  RH  059%=      5-min Rain = 0
KCES 181410Z 18005KT 16/08 A2978 RMK A01 T01580075  RH  059%=      5-min Rain = 0
KCES 181415Z 18006KT 16/08 A2978 RMK A01 T01600077  RH  059%=      5-min Rain = 0
KCES 181420Z 17009KT 16/08 A2978 RMK A01 T01610077  RH  059%=      5-min Rain = 0
KCES 181425Z 18008KT 16/08 A2978 RMK A01 T01620078  RH  059%=      5-min Rain = 0
KCES 181430Z 18008KT 17/08 A2978 RMK A01 T01660080  RH  059%=      5-min Rain = 0
KCES 181435Z 18009KT 17/08 A2978 RMK A01 T01690082  RH  058%=      5-min Rain = 0
KCES 181440Z 18010KT 17/08 A2978 RMK A01 T01700082  RH  058%=      5-min Rain = 0
KCES 181445Z 18010KT 17/08 A2977 RMK A01 T01710083  RH  058%=      5-min Rain = 0
KCES 181450Z 18010KT 17/08 A2977 RMK A01 T01730084  RH  057%=      5-min Rain = 0
KCES 181455Z 18010KT 18/09 A2977 RMK A01 T01750085  RH  057%=      5-min Rain = 0
KCES 181500Z 19009KT 18/09 A2977 RMK A01 T01760086  RH  057%=      5-min Rain = 0
KCES 181505Z 19010KT 18/09 A2977 RMK A01 T01770086  RH  057%=      5-min Rain = 0
KCES 181510Z 19009KT 18/09 A2977 RMK A01 T01780087  RH  057%=      5-min Rain = 0
KCES 181515Z 18008KT 18/09 A2977 RMK A01 T01790086  RH  056%=      5-min Rain = 0
KCES 181520Z 19009KT 18/09 A2977 RMK A01 T01810086  RH  055%=      5-min Rain = 0
KCES 181525Z 18008KT 18/09 A2977 RMK A01 T01820086  RH  055%=      5-min Rain = 0
KCES 181530Z 19009KT 18/09 A2976 RMK A01 T01840086  RH  055%=      5-min Rain = 0
KCES 181535Z 19009KT 19/09 A2976 RMK A01 T01860088  RH  054%=      5-min Rain = 0
KCES 181540Z 17009KT 19/09 A2976 RMK A01 T01870087  RH  054%=      5-min Rain = 0
KCES 181545Z 18007KT 19/09 A2976 RMK A01 T01900089  RH  053%=      5-min Rain = 0
KCES 181550Z 18007KT 19/09 A2976 RMK A01 T01920089  RH  053%=      5-min Rain = 0
KCES 181555Z 19006KT 19/09 A2976 RMK A01 T01940090  RH  053%=      5-min Rain = 0
KCES 181600Z 18006KT 20/09 A2976 RMK A01 T01960091  RH  052%=      5-min Rain = 0
KCES 181605Z 18007KT 20/09 A2975 RMK A01 T01990092  RH  052%=      5-min Rain = 0
KCES 181610Z 19008KT 20/09 A2975 RMK A01 T02000093  RH  052%=      5-min Rain = 0
KCES 181615Z 19007KT 20/09 A2975 RMK A01 T02040094  RH  051%=      5-min Rain = 0
KCES 181620Z 17008KT 21/10 A2975 RMK A01 T02070095  RH  050%=      5-min Rain = 0
KCES 181625Z 17008KT 21/09 A2975 RMK A01 T02060094  RH  050%=      5-min Rain = 0
KCES 181630Z 18008KT 21/10 A2975 RMK A01 T02090095  RH  050%=      5-min Rain = 0
KCES 181635Z 18010KT 21/10 A2974 RMK A01 T02120096  RH  049%=      5-min Rain = 0
KCES 181640Z 20010KT 21/10 A2974 RMK A01 T02140097  RH  049%=      5-min Rain = 0
KCES 181645Z 21011KT 22/10 A2974 RMK A01 T02150097  RH  048%=      5-min Rain = 0
KCES 181650Z 20011G16KT 22/10 A2973 RMK A01 T02180097  RH  048%=      5-min Rain = 0
KCES 181655Z 20012KT 22/10 A2973 RMK A01 T02160097  RH  048%=      5-min Rain = 0
KCES 181700Z 20012G17KT 22/10 A2973 RMK A01 T02210096  RH  046%=      5-min Rain = 0
KCES 181705Z 19012KT 22/10 A2973 RMK A01 T02210096  RH  047%=      5-min Rain = 0
KCES 181710Z 19012G17KT 22/10 A2973 RMK A01 T02210097  RH  047%=      5-min Rain = 0
KCES 181715Z 18013G18KT 22/10 A2972 RMK A01 T02240098  RH  046%=      5-min Rain = 0
KCES 181720Z 19014KT 23/10 A2972 RMK A01 T02250098  RH  046%=      5-min Rain = 0
KCES 181725Z 18013G18KT 23/10 A2972 RMK A01 T02270100  RH  046%=      5-min Rain = 0
KCES 181730Z 19014G20KT 23/10 A2972 RMK A01 T02310101  RH  045%=      5-min Rain = 0
KCES 181735Z 19013KT 23/10 A2971 RMK A01 T02320101  RH  045%=      5-min Rain = 0
KCES 181740Z 19014KT 23/10 A2971 RMK A01 T02330099  RH  044%=      5-min Rain = 0
KCES 181745Z 19015KT 23/10 A2971 RMK A01 T02330100  RH  044%=      5-min Rain = 0
KCES 181750Z 19013G22KT 23/10 A2971 RMK A01 T02340100  RH  044%=      5-min Rain = 0
KCES 181755Z 17013KT 24/10 A2971 RMK A01 T02370100  RH  043%=      5-min Rain = 0
KCES 181800Z 17012KT 24/10 A297 RMK A01 T02390100  RH  043%=      5-min Rain = 0
KCES 181805Z 16013G18KT 24/10 A297 RMK A01 T02380099  RH  043%=      5-min Rain = 0
KCES 181810Z 16012G20KT 24/10 A297 RMK A01 T02390100  RH  043%=      5-min Rain = 0
KCES 181815Z 18012G17KT 25/10 A297 RMK A01 T02450102  RH  042%=      5-min Rain = 0
KCES 181820Z 17014KT 25/10 A2969 RMK A01 T02480102  RH  041%=      5-min Rain = 0
KCES 181825Z 17014KT 25/10 A2969 RMK A01 T02470101  RH  041%=      5-min Rain = 0
KCES 181830Z 17013KT 25/10 A2969 RMK A01 T02510104  RH  041%=      5-min Rain = 0
KCES 181835Z 18013G18KT 25/11 A2969 RMK A01 T02540105  RH  040%=      5-min Rain = 0
KCES 181840Z 19012G18KT 26/11 A2968 RMK A01 T02560106  RH  040%=      5-min Rain = 0
KCES 181845Z 18013G18KT 26/11 A2968 RMK A01 T02550107  RH  041%=      5-min Rain = 0
KCES 181850Z 19013KT 25/11 A2968 RMK A01 T02530108  RH  042%=      5-min Rain = 0
KCES 181855Z 19014G20KT 25/11 A2967 RMK A01 T02500109  RH  043%=      5-min Rain = 0
KCES 181900Z 20015KT 26/11 A2967 RMK A01 T02560111  RH  042%=      5-min Rain = 0
KCES 181905Z 20014G19KT 26/11 A2966 RMK A01 T02580110  RH  041%=      5-min Rain = 0
KCES 181910Z 19015KT 26/11 A2966 RMK A01 T02640110  RH  040%=      5-min Rain = 0
KCES 181915Z 20013G18KT 26/11 A2966 RMK A01 T02610110  RH  040%=      5-min Rain = 0
KCES 181920Z 20013KT 27/11 A2966 RMK A01 T02680111  RH  039%=      5-min Rain = 0
KCES 181925Z 21011G17KT 27/11 A2966 RMK A01 T02710112  RH  039%=      5-min Rain = 0
KCES 181930Z 19012G17KT 27/11 A2966 RMK A01 T02700111  RH  038%=      5-min Rain = 0
KCES 181935Z 19012G17KT 27/11 A2965 RMK A01 T02700111  RH  038%=      5-min Rain = 0
KCES 181940Z 21012G20KT 27/11 A2965 RMK A01 T02710112  RH  039%=      5-min Rain = 0
KCES 181945Z 20012KT 27/11 A2965 RMK A01 T02700112  RH  039%=      5-min Rain = 0
KCES 181950Z 19013G18KT 27/11 A2965 RMK A01 T02740113  RH  038%=      5-min Rain = 0
KCES 181955Z 20011G17KT 27/11 A2965 RMK A01 T02740113  RH  038%=      5-min Rain = 0
KCES 182000Z 21012G18KT 27/11 A2964 RMK A01 T02740112  RH  038%=      5-min Rain = 0
KCES 182005Z 21014KT 27/11 A2964 RMK A01 T02720109  RH  037%=      5-min Rain = 0
KCES 182010Z 20013KT 27/11 A2964 RMK A01 T02710108  RH  037%=      5-min Rain = 0
KCES 182015Z 19014G19KT 27/11 A2963 RMK A01 T02730110  RH  037%=      5-min Rain = 0
KCES 182020Z 22012G18KT 28/11 A2963 RMK A01 T02760110  RH  037%=      5-min Rain = 0
KCES 182025Z 21012G17KT 28/11 A2963 RMK A01 T02760110  RH  037%=      5-min Rain = 0
KCES 182030Z 19012KT 28/11 A2963 RMK A01 T02780112  RH  037%=      5-min Rain = 0
KCES 182035Z 19012G20KT 28/11 A2963 RMK A01 T02780112  RH  037%=      5-min Rain = 0
KCES 182040Z 19013G18KT 28/11 A2962 RMK A01 T02770111  RH  037%=      5-min Rain = 0
KCES 182045Z 18012KT 28/11 A2962 RMK A01 T02770111  RH  037%=      5-min Rain = 0
KCES 182050Z 18012G17KT 28/11 A2962 RMK A01 T02770111  RH  037%=      5-min Rain = 0
KCES 182055Z 20011KT 27/11 A2961 RMK A01 T02740111  RH  037%=      5-min Rain = 0
KCES 182100Z 18012G19KT 28/11 A2962 RMK A01 T02780111  RH  037%=      5-min Rain = 0
KCES 182105Z 17012G18KT 28/11 A2961 RMK A01 T02790110  RH  036%=      5-min Rain = 0
KCES 182110Z 17012G18KT 27/11 A2961 RMK A01 T02690107  RH  037%=      5-min Rain = 0
KCES 182115Z 19013G19KT 27/11 A2961 RMK A01 T02660106  RH  038%=      5-min Rain = 0
KCES 182120Z 19009KT 27/11 A2961 RMK A01 T02650106  RH  038%=      5-min Rain = 0
KCES 182125Z 18010KT 26/11 A2961 RMK A01 T02640108  RH  039%=      5-min Rain = 0
KCES 182130Z 18012KT 26/11 A2961 RMK A01 T02620109  RH  039%=      5-min Rain = 0
KCES 182135Z 18012KT 26/11 A2962 RMK A01 T02600111  RH  041%=      5-min Rain = 0
KCES 182140Z 19012G17KT 25/13 A2962 RMK A01 T02510128  RH  048%=      5-min Rain = 0.01
KCES 182145Z 19010KT 24/15 A2963 RMK A01 T02360146  RH  060%=      5-min Rain = 0
KCES 182150Z 18009KT 24/15 A2962 RMK A01 T02360154  RH  063%=      5-min Rain = 0.01
KCES 182155Z 17010KT 24/15 A2961 RMK A01 T02380149  RH  060%=      5-min Rain = 0
KCES 182200Z 16011KT 23/15 A2961 RMK A01 T02340149  RH  062%=      5-min Rain = 0
KCES 182205Z 18008KT 23/15 A2961 RMK A01 T02330154  RH  064%=      5-min Rain = 0
KCES 182210Z 19006KT 24/15 A2961 RMK A01 T02370151  RH  061%=      5-min Rain = 0
KCES 182215Z 17006KT 24/15 A2961 RMK A01 T02370153  RH  062%=      5-min Rain = 0
KCES 182220Z 17007KT 24/15 A2961 RMK A01 T02440150  RH  058%=      5-min Rain = 0
KCES 182225Z 17009KT 25/15 A2961 RMK A01 T02480147  RH  056%=      5-min Rain = 0
KCES 182230Z 17011G16KT 25/15 A2961 RMK A01 T02510146  RH  054%=      5-min Rain = 0
KCES 182235Z 16014KT 24/14 A2961 RMK A01 T02420142  RH  056%=      5-min Rain = 0
KCES 182240Z 15012KT 23/14 A2961 RMK A01 T02340136  RH  056%=      5-min Rain = 0
KCES 182245Z 15011KT 23/13 A296 RMK A01 T02330134  RH  056%=      5-min Rain = 0
KCES 182250Z 15013KT 23/14 A296 RMK A01 T02340136  RH  057%=      5-min Rain = 0
KCES 182255Z 15011KT 24/14 A296 RMK A01 T02360136  RH  055%=      5-min Rain = 0
KCES 182300Z 15010KT 24/13 A296 RMK A01 T02370133  RH  054%=      5-min Rain = 0
KCES 182305Z 15009KT 24/13 A296 RMK A01 T02380130  RH  053%=      5-min Rain = 0
KCES 182310Z 15010KT 24/13 A296 RMK A01 T02390127  RH  052%=      5-min Rain = 0
KCES 182315Z 15011KT 24/13 A296 RMK A01 T02390127  RH  051%=      5-min Rain = 0
KCES 182320Z 14010KT 24/13 A296 RMK A01 T02370127  RH  052%=      5-min Rain = 0
KCES 182325Z 14012KT 23/12 A296 RMK A01 T02340124  RH  052%=      5-min Rain = 0
KCES 182330Z 14011KT 23/12 A296 RMK A01 T02310122  RH  052%=      5-min Rain = 0
KCES 182335Z 14010KT 23/12 A296 RMK A01 T02280122  RH  053%=      5-min Rain = 0
KCES 182340Z 15006KT 23/12 A296 RMK A01 T02270123  RH  054%=      5-min Rain = 0
KCES 182345Z 15006KT 23/12 A296 RMK A01 T02250124  RH  055%=      5-min Rain = 0
KCES 182350Z 14006KT 22/13 A296 RMK A01 T02220125  RH  056%=      5-min Rain = 0
KCES 182355Z 15006KT 22/12 A296 RMK A01 T02190124  RH  057%=      5-min Rain = 0
KCES 190000Z 15007KT 22/12 A296 RMK A01 T02180123  RH  057%=      5-min Rain = 0
KCES 190005Z 15007KT 22/12 A296 RMK A01 T02170121  RH  057%=      5-min Rain = 0
KCES 190010Z 16005KT 21/12 A296 RMK A01 T02140121  RH  057%=      5-min Rain = 0
KCES 190015Z 19004KT 21/12 A2961 RMK A01 T02100122  RH  059%=      5-min Rain = 0
KCES 190020Z 16006G11KT 21/12 A2961 RMK A01 T02070122  RH  060%=      5-min Rain = 0
KCES 190025Z 16010KT 21/12 A296 RMK A01 T02130120  RH  057%=      5-min Rain = 0
KCES 190030Z 16008KT 22/12 A296 RMK A01 T02170122  RH  057%=      5-min Rain = 0
KCES 190035Z 15008KT 21/12 A296 RMK A01 T02140123  RH  058%=      5-min Rain = 0
KCES 190040Z 16007KT 21/12 A2961 RMK A01 T02120123  RH  059%=      5-min Rain = 0
KCES 190045Z 18005KT 21/12 A2961 RMK A01 T02080122  RH  060%=      5-min Rain = 0
KCES 190050Z 18005KT 21/12 A2961 RMK A01 T02050121  RH  061%=      5-min Rain = 0
KCES 190055Z 17008KT 21/12 A2961 RMK A01 T02060121  RH  061%=      5-min Rain = 0
KCES 190100Z 16010KT 21/12 A2961 RMK A01 T02110122  RH  059%=      5-min Rain = 0
KCES 190105Z 15010KT 21/12 A2961 RMK A01 T02140121  RH  057%=      5-min Rain = 0
KCES 190110Z 15009KT 22/12 A2961 RMK A01 T02150121  RH  057%=      5-min Rain = 0
KCES 190115Z 14010KT 21/12 A2961 RMK A01 T02100122  RH  059%=      5-min Rain = 0
KCES 190120Z 14009KT 21/12 A2962 RMK A01 T02060122  RH  061%=      5-min Rain = 0
KCES 190125Z 14008KT 20/12 A2962 RMK A01 T02010123  RH  063%=      5-min Rain = 0
KCES 190130Z 14004KT 20/12 A2962 RMK A01 T01970122  RH  064%=      5-min Rain = 0
KCES 190135Z 23002KT 19/12 A2962 RMK A01 T01910120  RH  066%=      5-min Rain = 0
KCES 190140Z 22002KT 19/12 A2963 RMK A01 T01870120  RH  067%=      5-min Rain = 0
KCES 190145Z 24006KT 18/12 A2963 RMK A01 T01840120  RH  068%=      5-min Rain = 0
KCES 190150Z 22006KT 19/12 A2963 RMK A01 T01890121  RH  067%=      5-min Rain = 0
KCES 190155Z 27005KT 19/12 A2964 RMK A01 T01880123  RH  069%=      5-min Rain = 0
KCES 190200Z 29002KT 18/12 A2964 RMK A01 T01810124  RH  072%=      5-min Rain = 0
KCES 190205Z 33002KT 18/12 A2964 RMK A01 T01760124  RH  074%=      5-min Rain = 0
KCES 190210Z 25003KT 17/13 A2964 RMK A01 T01740125  RH  076%=      5-min Rain = 0
KCES 190215Z 30004KT 17/13 A2965 RMK A01 T01730127  RH  077%=      5-min Rain = 0
KCES 190220Z 30006KT 17/13 A2965 RMK A01 T01730131  RH  080%=      5-min Rain = 0
KCES 190225Z 33007KT 18/13 A2964 RMK A01 T01810129  RH  075%=      5-min Rain = 0
KCES 190230Z 01006KT 20/12 A2963 RMK A01 T01960124  RH  066%=      5-min Rain = 0
KCES 190235Z 22007G18KT 20/12 A2964 RMK A01 T02020115  RH  060%=      5-min Rain = 0
KCES 190240Z 22022G35KT 21/10 A2967 RMK A01 T02100102  RH  052%=      5-min Rain = 0
KCES 190245Z 24019G25KT 22/09 A2967 RMK A01 T02160085  RH  044%=      5-min Rain = 0
KCES 190250Z 24021G28KT 22/08 A2967 RMK A01 T02190080  RH  042%=      5-min Rain = 0
KCES 190255Z 25023G31KT 23/07 A2967 RMK A01 T02270069  RH  037%=      5-min Rain = 0
KCES 190300Z 26019G32KT 23/07 A2968 RMK A01 T02340069  RH  035%=      5-min Rain = 0
KCES 190305Z 26020G30KT 22/08 A2969 RMK A01 T02210083  RH  043%=      5-min Rain = 0
KCES 190310Z 31014G20KT 21/09 A2967 RMK A01 T02080089  RH  048%=      5-min Rain = 0
KCES 190315Z 32010KT 20/09 A2966 RMK A01 T01980092  RH  052%=      5-min Rain = 0
KCES 190320Z 32008G13KT 20/08 A2965 RMK A01 T02040079  RH  046%=      5-min Rain = 0
KCES 190325Z 29011KT 22/07 A2965 RMK A01 T02150073  RH  041%=      5-min Rain = 0
KCES 190330Z 31009G14KT 22/07 A2964 RMK A01 T02180069  RH  039%=      5-min Rain = 0
KCES 190335Z 29007G12KT 22/06 A2965 RMK A01 T02240061  RH  036%=      5-min Rain = 0
KCES 190340Z 28008KT 23/05 A2965 RMK A01 T02340052  RH  031%=      5-min Rain = 0
KCES 190345Z 21003KT 23/06 A2965 RMK A01 T02320062  RH  034%=      5-min Rain = 0
KCES 190350Z 21005KT 22/07 A2964 RMK A01 T02240068  RH  037%=      5-min Rain = 0
KCES 190355Z 24007KT 22/07 A2965 RMK A01 T02170071  RH  040%=      5-min Rain = 0
KCES 190400Z 24007KT 22/07 A2965 RMK A01 T02160069  RH  039%=      5-min Rain = 0
KCES 190405Z 25009KT 22/06 A2965 RMK A01 T02170063  RH  038%=      5-min Rain = 0
KCES 190410Z 25010KT 22/06 A2965 RMK A01 T02180061  RH  037%=      5-min Rain = 0
KCES 190415Z 25009KT 22/06 A2965 RMK A01 T02230057  RH  035%=      5-min Rain = 0
KCES 190420Z 26008KT 22/06 A2966 RMK A01 T02200061  RH  036%=      5-min Rain = 0
KCES 190425Z 28008KT 22/06 A2966 RMK A01 T02190060  RH  036%=      5-min Rain = 0
KCES 190430Z 28008KT 22/06 A2966 RMK A01 T02180060  RH  037%=      5-min Rain = 0
KCES 190435Z 26008KT 22/06 A2966 RMK A01 T02180056  RH  036%=      5-min Rain = 0
KCES 190440Z 25008KT 22/06 A2966 RMK A01 T02160056  RH  036%=      5-min Rain = 0
KCES 190445Z 23008KT 21/06 A2966 RMK A01 T02090064  RH  040%=      5-min Rain = 0
KCES 190450Z 21008KT 20/07 A2966 RMK A01 T01990070  RH  044%=      5-min Rain = 0
KCES 190455Z 21009KT 19/07 A2967 RMK A01 T01930073  RH  047%=      5-min Rain = 0

Page generated in 0.0169 seconds.